createdAt,value
2018-02-24T00:01:29.362Z,72.70
2018-02-24T00:03:56.976Z,72.70
2018-02-24T00:06:24.620Z,72.70
2018-02-24T00:08:52.663Z,73.00
2018-02-24T00:11:20.244Z,73.00
2018-02-24T00:13:47.900Z,73.40
2018-02-24T00:16:15.923Z,73.10
2018-02-24T00:18:43.536Z,73.10
2018-02-24T00:21:11.151Z,73.00
2018-02-24T00:23:38.796Z,73.10
2018-02-24T00:26:06.363Z,73.10
2018-02-24T00:28:34.008Z,73.10
2018-02-24T00:31:01.647Z,73.10
2018-02-24T00:33:29.288Z,73.10
2018-02-24T00:35:56.887Z,73.40
2018-02-24T00:38:24.512Z,73.40
2018-02-24T00:40:52.099Z,73.20
2018-02-24T00:43:19.762Z,73.40
2018-02-24T00:45:47.322Z,73.50
2018-02-24T00:48:14.928Z,73.50
2018-02-24T00:50:42.562Z,73.50
2018-02-24T00:53:10.200Z,73.60
2018-02-24T00:55:37.822Z,73.40
2018-02-24T00:58:05.847Z,73.60
2018-02-24T01:00:33.444Z,73.60
2018-02-24T01:03:01.106Z,73.60
2018-02-24T01:05:28.712Z,73.90
2018-02-24T01:07:56.294Z,73.80
2018-02-24T01:10:23.867Z,73.90
2018-02-24T01:12:51.511Z,73.80
2018-02-24T01:15:19.111Z,74.00
2018-02-24T01:17:46.776Z,73.90
2018-02-24T01:20:14.392Z,74.00
2018-02-24T01:22:42.060Z,74.10
2018-02-24T01:25:09.660Z,74.10
2018-02-24T01:27:37.710Z,74.10
2018-02-24T01:30:05.367Z,74.20
2018-02-24T01:32:32.966Z,74.10
2018-02-24T01:35:00.559Z,74.20
2018-02-24T01:37:28.152Z,74.20
2018-02-24T01:39:56.146Z,74.40
2018-02-24T01:42:23.813Z,74.40
2018-02-24T01:44:51.472Z,74.60
2018-02-24T01:47:19.112Z,74.60
2018-02-24T01:49:47.149Z,74.60
2018-02-24T01:52:14.772Z,74.60
2018-02-24T01:54:42.400Z,74.60
2018-02-24T01:57:10.443Z,74.80
2018-02-24T01:59:38.051Z,74.80
2018-02-24T02:02:05.617Z,74.90
2018-02-24T02:04:33.212Z,75.10
2018-02-24T02:07:00.775Z,75.10
2018-02-24T02:09:28.392Z,75.10
2018-02-24T02:11:55.990Z,75.40
2018-02-24T02:14:23.626Z,75.40
2018-02-24T02:16:51.227Z,75.20
2018-02-24T02:19:18.861Z,75.40
2018-02-24T02:21:46.444Z,75.40
2018-02-24T02:24:14.041Z,75.50
2018-02-24T02:26:41.598Z,75.50
2018-02-24T02:29:09.266Z,75.60
2018-02-24T02:31:36.880Z,75.60
2018-02-24T02:34:04.954Z,75.70
2018-02-24T02:36:32.487Z,75.70
2018-02-24T02:39:00.080Z,75.90
2018-02-24T02:41:28.073Z,75.80
2018-02-24T02:43:55.659Z,75.80
2018-02-24T02:46:23.250Z,75.90
2018-02-24T02:48:50.886Z,75.80
2018-02-24T02:51:18.463Z,76.00
2018-02-24T02:53:46.093Z,76.30
2018-02-24T02:56:13.678Z,76.40
2018-02-24T02:58:41.272Z,76.40
2018-02-24T03:01:08.871Z,76.50
2018-02-24T03:03:36.453Z,76.40
2018-02-24T03:06:04.077Z,76.30
2018-02-24T03:08:31.671Z,76.30
2018-02-24T03:10:59.277Z,76.00
2018-02-24T03:13:26.863Z,76.00
2018-02-24T03:15:54.626Z,76.20
2018-02-24T03:18:22.255Z,76.00
2018-02-24T03:20:49.869Z,75.90
2018-02-24T03:23:17.458Z,76.00
2018-02-24T03:25:45.056Z,76.00
2018-02-24T03:28:12.648Z,76.40
2018-02-24T03:30:40.302Z,76.50
2018-02-24T03:33:07.885Z,76.50
2018-02-24T03:35:35.455Z,76.70
2018-02-24T03:38:03.030Z,76.60
2018-02-24T03:40:30.653Z,76.60
2018-02-24T03:42:58.257Z,76.80
2018-02-24T03:45:28.337Z,76.80
2018-02-24T03:47:56.330Z,76.80
2018-02-24T03:50:23.945Z,76.80
2018-02-24T03:52:51.504Z,76.80
2018-02-24T03:55:19.125Z,77.00
2018-02-24T03:57:46.739Z,76.80
2018-02-24T04:00:14.391Z,77.10
2018-02-24T04:02:41.969Z,77.00
2018-02-24T04:05:09.990Z,77.40
2018-02-24T04:07:37.556Z,77.40
2018-02-24T04:10:05.138Z,77.30
2018-02-24T04:12:32.701Z,77.30
2018-02-24T04:15:00.337Z,77.40
2018-02-24T04:17:27.936Z,77.60
2018-02-24T04:19:55.986Z,77.80
2018-02-24T04:22:23.617Z,77.80
2018-02-24T04:24:51.226Z,77.80
2018-02-24T04:27:19.254Z,78.10
2018-02-24T04:29:46.876Z,78.00
2018-02-24T04:32:14.465Z,78.00
2018-02-24T04:34:42.071Z,77.80
2018-02-24T04:37:09.680Z,77.90
2018-02-24T04:39:37.338Z,78.00
2018-02-24T04:42:04.933Z,78.10
2018-02-24T04:44:32.551Z,78.20
2018-02-24T04:47:00.169Z,78.10
2018-02-24T04:49:28.166Z,78.40
2018-02-24T04:51:55.770Z,78.40
2018-02-24T04:54:23.341Z,78.50
2018-02-24T04:56:50.956Z,78.50
2018-02-24T04:59:18.578Z,78.70
2018-02-24T05:01:46.170Z,79.10
2018-02-24T05:04:13.757Z,78.90
2018-02-24T05:06:41.383Z,79.10
2018-02-24T05:09:08.952Z,79.30
2018-02-24T05:11:36.554Z,79.30
2018-02-24T05:14:04.154Z,79.20
2018-02-24T05:16:31.753Z,79.30
2018-02-24T05:18:59.359Z,79.40
2018-02-24T05:21:27.034Z,79.40
2018-02-24T05:23:54.597Z,79.50
2018-02-24T05:26:22.264Z,79.40
2018-02-24T05:28:49.899Z,79.30
2018-02-24T05:31:17.507Z,79.40
2018-02-24T05:33:45.106Z,79.40
2018-02-24T05:36:12.726Z,79.60
2018-02-24T05:38:40.364Z,79.60
2018-02-24T05:41:08.024Z,79.60
2018-02-24T05:43:35.614Z,79.70
2018-02-24T05:46:03.238Z,79.80
2018-02-24T05:48:30.844Z,79.90
2018-02-24T05:50:58.446Z,79.90
2018-02-24T05:53:26.037Z,80.00
2018-02-24T05:55:53.655Z,80.20
2018-02-24T05:58:21.271Z,80.10
2018-02-24T06:00:48.915Z,80.20
2018-02-24T06:03:16.501Z,80.20
2018-02-24T06:05:44.130Z,80.20
2018-02-24T06:08:11.721Z,80.30
2018-02-24T06:10:41.329Z,80.20
2018-02-24T06:13:09.327Z,80.20
2018-02-24T06:15:36.919Z,80.20
2018-02-24T06:18:04.565Z,80.20
2018-02-24T06:20:32.229Z,80.20
2018-02-24T06:22:59.828Z,80.30
2018-02-24T06:25:27.448Z,80.60
2018-02-24T06:27:55.062Z,80.50
2018-02-24T06:30:23.057Z,80.70
2018-02-24T06:32:50.879Z,80.70
2018-02-24T06:35:18.639Z,80.60
2018-02-24T06:37:46.287Z,80.60
2018-02-24T06:40:13.891Z,80.50
2018-02-24T06:42:41.486Z,80.50
2018-02-24T06:45:09.060Z,80.50
2018-02-24T06:47:36.888Z,80.60
2018-02-24T06:50:04.576Z,80.50
2018-02-24T06:52:32.159Z,80.60
2018-02-24T06:54:59.737Z,80.30
2018-02-24T06:57:27.350Z,80.20
2018-02-24T06:59:55.734Z,80.00
2018-02-24T07:02:23.336Z,79.80
2018-02-24T07:04:50.911Z,79.70
2018-02-24T07:07:18.557Z,79.60
2018-02-24T07:09:46.152Z,79.30
2018-02-24T07:12:13.820Z,79.30
2018-02-24T07:14:41.425Z,78.90
2018-02-24T07:17:09.064Z,78.60
2018-02-24T07:19:36.633Z,78.60
2018-02-24T07:22:04.270Z,78.20
2018-02-24T07:24:31.907Z,78.20
2018-02-24T07:26:59.533Z,77.80
2018-02-24T07:29:28.259Z,77.70
2018-02-24T07:31:55.924Z,77.30
2018-02-24T07:34:23.604Z,77.20
2018-02-24T07:36:52.550Z,77.00
2018-02-24T07:39:20.506Z,76.70
2018-02-24T07:41:48.886Z,76.40
2018-02-24T07:44:16.523Z,76.50
2018-02-24T07:46:44.544Z,75.40
2018-02-24T07:49:12.151Z,75.40
2018-02-24T07:51:39.780Z,75.40
2018-02-24T07:54:07.422Z,75.30
2018-02-24T07:56:35.032Z,75.30
2018-02-24T07:59:03.018Z,74.40
2018-02-24T08:01:30.639Z,74.40
2018-02-24T08:03:58.257Z,74.60
2018-02-24T08:06:25.859Z,74.40
2018-02-24T08:08:53.459Z,74.10
2018-02-24T08:11:21.040Z,74.10
2018-02-24T08:13:48.692Z,74.10
2018-02-24T08:16:16.266Z,73.60
2018-02-24T08:18:43.957Z,73.20
2018-02-24T08:21:11.586Z,73.20
2018-02-24T08:23:39.222Z,72.80
2018-02-24T08:26:06.843Z,72.40
2018-02-24T08:28:34.485Z,72.60
2018-02-24T08:31:02.040Z,71.90
2018-02-24T08:33:29.693Z,71.60
2018-02-24T08:35:57.294Z,71.30
2018-02-24T08:38:24.886Z,71.60
2018-02-24T08:40:52.479Z,72.00
2018-02-24T08:43:20.461Z,69.70
2018-02-24T08:45:48.043Z,69.70
2018-02-24T08:48:16.044Z,69.60
2018-02-24T08:50:43.644Z,69.60
2018-02-24T08:53:11.295Z,69.10
2018-02-24T08:55:38.899Z,68.90
2018-02-24T08:58:06.813Z,69.20
2018-02-24T09:00:34.417Z,68.80
2018-02-24T09:03:02.038Z,68.60
2018-02-24T09:05:30.095Z,68.80
2018-02-24T09:07:57.977Z,68.30
2018-02-24T09:10:25.622Z,68.30
2018-02-24T09:12:53.255Z,67.60
2018-02-24T09:15:20.845Z,68.20
2018-02-24T09:17:48.506Z,67.60
2018-02-24T09:20:16.130Z,67.10
2018-02-24T09:22:43.797Z,67.30
2018-02-24T09:25:11.416Z,67.10
2018-02-24T09:27:39.458Z,66.30
2018-02-24T09:30:07.058Z,66.30
2018-02-24T09:32:34.654Z,65.90
2018-02-24T09:35:02.237Z,65.10
2018-02-24T09:37:29.835Z,64.60
2018-02-24T09:39:57.473Z,64.80
2018-02-24T09:42:25.137Z,64.30
2018-02-24T09:44:52.772Z,64.20
2018-02-24T09:47:20.586Z,64.30
2018-02-24T09:49:48.221Z,64.00
2018-02-24T09:52:15.820Z,63.50
2018-02-24T09:54:43.435Z,63.70
2018-02-24T09:57:11.976Z,63.50
2018-02-24T09:59:40.034Z,62.60
2018-02-24T10:02:15.599Z,62.60
2018-02-24T10:04:43.244Z,63.90
2018-02-24T10:07:10.886Z,63.10
2018-02-24T10:09:38.498Z,62.60
2018-02-24T10:12:06.122Z,62.80
2018-02-24T10:14:35.861Z,62.50
2018-02-24T10:17:03.427Z,61.40
2018-02-24T10:19:31.388Z,61.40
2018-02-24T10:21:59.020Z,61.40
2018-02-24T10:24:26.601Z,62.30
2018-02-24T10:26:59.063Z,60.80
2018-02-24T10:29:27.710Z,61.10
2018-02-24T10:31:55.290Z,61.20
2018-02-24T10:37:16.206Z,60.60
2018-02-24T10:39:43.815Z,60.50
2018-02-24T10:42:11.421Z,60.90
2018-02-24T10:44:39.026Z,60.80
2018-02-24T10:47:12.402Z,58.50
2018-02-24T10:49:39.996Z,58.40
2018-02-24T10:52:07.582Z,58.70
2018-02-24T10:54:35.183Z,58.10
2018-02-24T10:57:02.756Z,58.20
2018-02-24T10:59:30.391Z,57.30
2018-02-24T11:01:57.968Z,57.60
2018-02-24T11:04:25.661Z,56.20
2018-02-24T11:06:53.242Z,56.20
2018-02-24T11:09:20.927Z,56.60
2018-02-24T11:11:48.505Z,56.60
2018-02-24T11:14:16.132Z,56.70
2018-02-24T11:16:43.722Z,57.20
2018-02-24T11:19:11.316Z,56.50
2018-02-24T11:21:38.948Z,56.50
2018-02-24T11:24:06.564Z,56.20
2018-02-24T11:26:34.160Z,56.30
2018-02-24T11:29:01.843Z,55.70
2018-02-24T11:31:29.417Z,54.60
2018-02-24T11:33:57.400Z,55.00
2018-02-24T11:36:25.047Z,55.00
2018-02-24T11:38:52.651Z,54.80
2018-02-24T11:41:20.214Z,55.60
2018-02-24T11:44:01.679Z,54.80
2018-02-24T11:46:29.274Z,54.60
2018-02-24T11:48:56.884Z,54.30
2018-02-24T11:51:24.494Z,54.10
2018-02-24T11:53:52.131Z,54.60
2018-02-24T11:56:19.731Z,53.90
2018-02-24T11:58:47.492Z,53.80
2018-02-24T12:01:15.150Z,53.20
2018-02-24T12:03:42.762Z,52.70
2018-02-24T12:06:10.453Z,52.60
2018-02-24T12:08:38.133Z,52.70
2018-02-24T12:11:05.805Z,52.60
2018-02-24T12:13:33.389Z,51.90
2018-02-24T12:16:00.974Z,51.00
2018-02-24T12:18:28.613Z,51.00
2018-02-24T12:20:56.207Z,51.50
2018-02-24T12:23:23.800Z,51.80
2018-02-24T12:25:51.853Z,51.70
2018-02-24T12:28:19.468Z,51.70
2018-02-24T12:30:47.068Z,52.50
2018-02-24T12:33:14.640Z,51.80
2018-02-24T12:35:42.224Z,51.80
2018-02-24T12:38:09.859Z,51.90
2018-02-24T12:40:37.438Z,53.40
2018-02-24T12:43:04.995Z,52.40
2018-02-24T12:45:32.587Z,52.40
2018-02-24T12:48:00.168Z,51.00
2018-02-24T12:50:27.809Z,52.00
2018-02-24T12:52:55.390Z,52.00
2018-02-24T12:55:23.019Z,52.10
2018-02-24T12:57:50.603Z,52.10
2018-02-24T13:00:18.191Z,51.90
2018-02-24T13:02:45.780Z,51.30
2018-02-24T13:05:13.415Z,51.00
2018-02-24T13:07:40.943Z,49.80
2018-02-24T13:10:08.521Z,50.60
2018-02-24T13:12:39.307Z,50.80
2018-02-24T13:15:06.947Z,51.00
2018-02-24T13:17:34.531Z,51.20
2018-02-24T13:20:02.494Z,52.10
2018-02-24T13:22:30.074Z,52.60
2018-02-24T13:24:57.923Z,51.40
2018-02-24T13:27:25.559Z,50.90
2018-02-24T13:29:53.153Z,51.30
2018-02-24T13:32:20.764Z,52.50
2018-02-24T13:34:48.310Z,52.40
2018-02-24T13:37:15.950Z,53.40
2018-02-24T13:39:43.522Z,53.10
2018-02-24T13:42:11.522Z,53.40
2018-02-24T13:44:39.125Z,53.40
2018-02-24T13:47:06.708Z,53.00
2018-02-24T13:49:34.266Z,53.80
2018-02-24T13:52:01.865Z,53.60
2018-02-24T13:54:29.437Z,53.90
2018-02-24T13:56:57.103Z,52.40
2018-02-24T13:59:24.697Z,51.80
2018-02-24T14:01:52.307Z,53.70
2018-02-24T14:04:19.896Z,53.20
2018-02-24T14:06:47.518Z,52.40
2018-02-24T14:09:15.089Z,52.40
2018-02-24T14:11:42.717Z,52.10
2018-02-24T14:14:10.334Z,51.90
2018-02-24T14:16:37.975Z,52.10
2018-02-24T14:19:05.555Z,52.10
2018-02-24T14:21:33.215Z,51.90
2018-02-24T14:24:00.852Z,51.60
2018-02-24T14:26:28.439Z,51.70
2018-02-24T14:28:56.030Z,51.30
2018-02-24T14:31:23.618Z,51.20
2018-02-24T14:33:51.234Z,50.90
2018-02-24T14:36:18.822Z,50.70
2018-02-24T14:38:46.407Z,51.00
2018-02-24T14:41:14.279Z,51.40
2018-02-24T14:43:42.114Z,51.60
2018-02-24T14:46:09.699Z,50.30
2018-02-24T14:48:37.270Z,50.70
2018-02-24T14:51:05.257Z,50.10
2018-02-24T14:53:32.856Z,50.50
2018-02-24T14:56:01.419Z,51.20
2018-02-24T14:58:29.330Z,49.80
2018-02-24T15:00:56.954Z,49.60
2018-02-24T15:03:24.547Z,49.70
2018-02-24T15:05:52.163Z,48.50
2018-02-24T15:08:19.794Z,48.80
2018-02-24T15:10:47.362Z,48.80
2018-02-24T15:13:14.959Z,49.00
2018-02-24T15:15:42.541Z,49.10
2018-02-24T15:18:10.186Z,48.80
2018-02-24T15:20:37.767Z,49.80
2018-02-24T15:23:05.357Z,48.30
2018-02-24T15:25:32.958Z,47.70
2018-02-24T15:28:00.608Z,47.60
2018-02-24T15:30:28.274Z,47.90
2018-02-24T15:32:55.852Z,47.40
2018-02-24T15:35:23.431Z,47.20
2018-02-24T15:37:51.398Z,48.00
2018-02-24T15:40:19.014Z,48.50
2018-02-24T15:42:46.802Z,48.20
2018-02-24T15:45:14.432Z,47.90
2018-02-24T15:47:42.051Z,48.30
2018-02-24T15:50:09.616Z,48.60
2018-02-24T15:52:37.427Z,48.50
2018-02-24T15:55:05.883Z,49.10
2018-02-24T15:57:33.499Z,49.40
2018-02-24T16:00:01.119Z,49.60
2018-02-24T16:02:28.759Z,50.50
2018-02-24T16:04:56.376Z,50.20
2018-02-24T16:07:24.009Z,50.50
2018-02-24T16:09:51.573Z,50.90
2018-02-24T16:12:19.196Z,51.60
2018-02-24T16:14:46.802Z,52.00
2018-02-24T16:17:14.444Z,51.90
2018-02-24T16:19:42.029Z,52.50
2018-02-24T16:22:09.724Z,53.90
2018-02-24T16:24:37.259Z,55.40
2018-02-24T16:27:04.890Z,57.30
2018-02-24T16:29:32.439Z,57.90
2018-02-24T16:32:00.037Z,58.70
2018-02-24T16:34:27.609Z,59.10
2018-02-24T16:36:55.181Z,59.80
2018-02-24T16:39:22.767Z,60.00
2018-02-24T16:41:50.452Z,60.10
2018-02-24T16:44:18.029Z,60.50
2018-02-24T16:46:45.678Z,60.90
2018-02-24T16:49:13.247Z,61.10
2018-02-24T16:51:40.859Z,61.40
2018-02-24T16:54:08.653Z,61.40
2018-02-24T16:56:36.244Z,62.00
2018-02-24T16:59:03.971Z,62.30
2018-02-24T17:01:31.565Z,62.30
2018-02-24T17:03:59.397Z,62.20
2018-02-24T17:06:26.981Z,62.60
2018-02-24T17:08:54.638Z,62.70
2018-02-24T17:11:22.188Z,62.90
2018-02-24T17:13:49.783Z,63.00
2018-02-24T17:16:17.379Z,63.40
2018-02-24T17:18:44.973Z,63.50
2018-02-24T17:21:12.553Z,64.40
2018-02-24T17:23:40.154Z,64.50
2018-02-24T17:26:07.759Z,65.00
2018-02-24T17:28:35.394Z,65.90
2018-02-24T17:31:02.968Z,66.60
2018-02-24T17:33:30.583Z,67.00
2018-02-24T17:35:58.183Z,67.40
2018-02-24T17:38:25.963Z,67.90
2018-02-24T17:40:53.547Z,68.00
2018-02-24T17:43:21.154Z,68.10
2018-02-24T17:45:48.729Z,68.60
2018-02-24T17:48:16.362Z,68.90
2018-02-24T17:50:43.929Z,68.90
2018-02-24T17:53:11.543Z,68.80
2018-02-24T17:55:39.113Z,69.30
2018-02-24T17:58:06.726Z,69.10
2018-02-24T18:00:34.324Z,68.90
2018-02-24T18:03:01.930Z,69.40
2018-02-24T18:05:29.474Z,68.90
2018-02-24T18:07:57.114Z,69.20
2018-02-24T18:10:24.750Z,67.40
2018-02-24T18:12:52.356Z,67.20
2018-02-24T18:15:19.931Z,66.00
2018-02-24T18:17:47.539Z,65.10
2018-02-24T18:20:15.130Z,65.00
2018-02-24T18:22:42.762Z,64.50
2018-02-24T18:25:10.347Z,64.20
2018-02-24T18:27:37.949Z,64.00
2018-02-24T18:30:05.549Z,64.10
2018-02-24T18:32:33.159Z,64.30
2018-02-24T18:35:00.783Z,64.20
2018-02-24T18:37:28.358Z,64.20
2018-02-24T18:39:55.942Z,64.10
2018-02-24T18:42:23.527Z,64.10
2018-02-24T18:44:51.202Z,64.30
2018-02-24T18:47:18.798Z,65.00
2018-02-24T18:49:46.841Z,65.10
2018-02-24T18:52:14.411Z,65.60
2018-02-24T18:54:42.058Z,65.70
2018-02-24T18:57:09.602Z,66.40
2018-02-24T18:59:37.234Z,66.90
2018-02-24T19:02:04.810Z,66.30
2018-02-24T19:04:32.442Z,65.40
2018-02-24T19:07:00.068Z,63.80
2018-02-24T19:09:27.666Z,63.00
2018-02-24T19:11:55.815Z,62.10
2018-02-24T19:14:23.578Z,62.10
2018-02-24T19:16:51.734Z,62.10
2018-02-24T19:19:19.494Z,62.00
2018-02-24T19:21:47.872Z,61.70
2018-02-24T19:24:16.199Z,61.70
2018-02-24T19:26:45.239Z,61.20
2018-02-24T19:29:12.874Z,61.20
2018-02-24T19:31:41.065Z,60.70
2018-02-24T19:34:08.835Z,60.90
2018-02-24T19:36:37.838Z,61.00
2018-02-24T19:39:05.442Z,60.90
2018-02-24T19:41:33.260Z,61.10
2018-02-24T19:44:01.012Z,61.20
2018-02-24T19:46:28.603Z,61.10
2018-02-24T19:48:57.254Z,61.20
2018-02-24T19:51:24.899Z,61.40
2018-02-24T19:53:52.492Z,61.40
2018-02-24T19:56:20.126Z,61.50
2018-02-24T19:58:47.675Z,61.20
2018-02-24T20:01:18.837Z,61.20
2018-02-24T20:03:46.415Z,61.40
2018-02-24T20:06:14.188Z,61.50
2018-02-24T20:08:42.617Z,61.60
2018-02-24T20:11:10.311Z,61.90
2018-02-24T20:13:37.886Z,61.50
2018-02-24T20:16:05.721Z,61.60
2018-02-24T20:18:33.331Z,61.50
2018-02-24T20:21:00.997Z,61.00
2018-02-24T20:23:29.018Z,61.20
2018-02-24T20:25:56.791Z,61.10
2018-02-24T20:28:24.563Z,61.10
2018-02-24T20:30:52.202Z,61.20
2018-02-24T20:33:20.231Z,61.10
2018-02-24T20:35:47.859Z,61.10
2018-02-24T20:38:15.442Z,61.20
2018-02-24T20:40:43.027Z,61.50
2018-02-24T20:43:10.804Z,61.70
2018-02-24T20:45:38.434Z,61.60
2018-02-24T20:48:06.650Z,61.90
2018-02-24T20:50:34.295Z,62.00
2018-02-24T20:53:02.501Z,62.50
2018-02-24T20:55:30.102Z,62.80
2018-02-24T20:57:57.671Z,62.60
2018-02-24T21:00:25.274Z,62.50
2018-02-24T21:02:53.232Z,62.80
2018-02-24T21:05:20.858Z,62.80
2018-02-24T21:07:48.435Z,62.90
2018-02-24T21:10:17.426Z,63.00
2018-02-24T21:12:45.059Z,63.10
2018-02-24T21:15:12.626Z,63.70
2018-02-24T21:17:40.405Z,64.40
2018-02-24T21:20:09.562Z,64.50
2018-02-24T21:22:38.807Z,65.10
2018-02-24T21:25:07.102Z,64.40
2018-02-24T21:27:34.751Z,64.30
2018-02-24T21:30:02.598Z,64.90
2018-02-24T21:32:31.676Z,65.50
2018-02-24T21:34:59.337Z,65.70
2018-02-24T21:37:26.941Z,65.90
2018-02-24T21:39:54.788Z,65.70
2018-02-24T21:42:22.457Z,65.60
2018-02-24T21:44:50.077Z,66.00
2018-02-24T21:47:17.678Z,65.90
2018-02-24T21:49:45.278Z,65.60
2018-02-24T21:52:12.919Z,65.50
2018-02-24T21:54:40.964Z,65.40
2018-02-24T21:57:08.533Z,65.40
2018-02-24T21:59:36.511Z,65.30
2018-02-24T22:02:04.115Z,65.30
2018-02-24T22:04:31.680Z,65.30
2018-02-24T22:06:59.687Z,65.50
2018-02-24T22:09:27.626Z,65.40
2018-02-24T22:11:55.687Z,65.40
2018-02-24T22:14:23.589Z,65.50
2018-02-24T22:16:51.338Z,65.30
2018-02-24T22:19:18.898Z,65.30
2018-02-24T22:21:46.496Z,65.30
2018-02-24T22:24:14.102Z,65.50
2018-02-24T22:26:42.346Z,65.30
2018-02-24T22:29:10.648Z,65.50
2018-02-24T22:31:39.234Z,65.30
2018-02-24T22:34:07.061Z,65.40
2018-02-24T22:36:35.121Z,65.30
2018-02-24T22:39:02.755Z,65.50
2018-02-24T22:41:30.735Z,65.70
2018-02-24T22:43:59.331Z,66.00
2018-02-24T22:46:27.853Z,66.00
2018-02-24T22:49:01.588Z,66.30
2018-02-24T22:51:30.055Z,66.00
2018-02-24T22:53:57.649Z,66.00
2018-02-24T22:56:25.356Z,66.00
2018-02-24T22:58:52.919Z,66.20
2018-02-24T23:01:20.514Z,65.70
2018-02-24T23:03:48.132Z,65.70
2018-02-24T23:06:15.718Z,65.50
2018-02-24T23:08:43.315Z,65.50
2018-02-24T23:11:10.959Z,65.50
2018-02-24T23:13:39.003Z,65.70
2018-02-24T23:16:06.597Z,65.70
2018-02-24T23:18:34.567Z,65.70
2018-02-24T23:21:02.559Z,65.70
2018-02-24T23:23:30.157Z,65.80
2018-02-24T23:25:57.777Z,65.80
2018-02-24T23:28:25.399Z,65.80
2018-02-24T23:30:53.116Z,65.80
2018-02-24T23:33:20.714Z,66.00
2018-02-24T23:35:48.283Z,65.90
2018-02-24T23:38:15.903Z,66.20
2018-02-24T23:40:43.462Z,66.30
2018-02-24T23:43:11.088Z,66.20
2018-02-24T23:45:38.667Z,66.60
2018-02-24T23:48:06.241Z,66.70
2018-02-24T23:50:33.814Z,66.90
2018-02-24T23:53:01.465Z,67.20
2018-02-24T23:55:29.027Z,67.30
2018-02-24T23:57:56.647Z,67.70
